Jacksonville, Vermont
Current Conditions -  °F | °C
As of 7:52 AM on Sunday 23 Nov 2014 (Local Time) from KAQW Reporting Station
Haze Haze  
Wind Chill: 37°   Ceiling: 2900
Heat Index: 37°   Visibility: 4mi
Dew Point: 35°   Wind: 0mph
Humidity: 93%   Direction: NA
Pressure: 30.11"   Gusts: NA
Location:  42.8°N, 72.82°W
Report Text: KAQW 231252Z AUTO 00000KT 4SM BR OVC029 03/02 A3011 RMK AO2 RAB1155E08 SLP202 P0000 T00280017
Loading
Personal Weather Stations






























Interactive Weather Map New forecast layout! Learn more

10-Day Weather Forecast

Advertisements
Track Severe Weather on mobile